createdAt,value
2024-03-16T00:02:04.823Z,100010.36
2024-03-16T00:04:31.552Z,100011.05
2024-03-16T00:06:59.273Z,100009.52
2024-03-16T00:09:26.042Z,100015.74
2024-03-16T00:11:52.870Z,100009.39
2024-03-16T00:14:19.315Z,100013.34
2024-03-16T00:16:45.771Z,100008.89
2024-03-16T00:19:12.477Z,100011.27
2024-03-16T00:21:39.069Z,100012.33
2024-03-16T00:24:08.350Z,100012.52
2024-03-16T00:26:34.979Z,100012.69
2024-03-16T00:29:01.578Z,100013.19
2024-03-16T00:31:28.509Z,100015.61
2024-03-16T00:33:55.014Z,100013.55
2024-03-16T00:36:23.901Z,100016.63
2024-03-16T00:38:51.783Z,100014.75
2024-03-16T00:41:18.190Z,100016.14
2024-03-16T00:43:44.850Z,100016.49
2024-03-16T00:46:11.528Z,100014.42
2024-03-16T00:48:38.304Z,100008.22
2024-03-16T00:51:04.877Z,100004.79
2024-03-16T00:53:31.442Z,100002.90
2024-03-16T00:55:58.603Z,100001.69
2024-03-16T00:58:25.056Z,99999.97
2024-03-16T01:00:52.909Z,99997.21
2024-03-16T01:03:19.588Z,99998.77
2024-03-16T01:05:52.078Z,100004.61
2024-03-16T01:08:18.717Z,100009.26
2024-03-16T01:10:45.435Z,100009.60
2024-03-16T01:13:12.028Z,100014.09
2024-03-16T01:15:38.548Z,100009.77
2024-03-16T01:18:05.156Z,100017.86
2024-03-16T01:20:31.779Z,100018.93
2024-03-16T01:22:59.797Z,100019.98
2024-03-16T01:25:26.376Z,100017.77
2024-03-16T01:27:52.799Z,100020.88
2024-03-16T01:30:22.573Z,100022.45
2024-03-16T01:32:49.025Z,100023.66
2024-03-16T01:35:15.656Z,100019.71
2024-03-16T01:37:42.160Z,100018.85
2024-03-16T01:40:10.901Z,100021.27
2024-03-16T01:42:37.773Z,100021.64
2024-03-16T01:45:11.591Z,100017.52
2024-03-16T01:47:38.910Z,100021.47
2024-03-16T01:50:06.074Z,100021.83
2024-03-16T01:52:33.762Z,100020.30
2024-03-16T01:55:00.593Z,100022.02
2024-03-16T01:57:27.160Z,100015.67
2024-03-16T01:59:53.683Z,100011.72
2024-03-16T02:02:34.896Z,100012.08
2024-03-16T02:05:02.660Z,100012.27
2024-03-16T02:07:29.037Z,100012.80
2024-03-16T02:09:55.717Z,100016.25
2024-03-16T02:12:22.365Z,100012.46
2024-03-16T02:14:49.054Z,100016.23
2024-03-16T02:17:15.503Z,100016.39
2024-03-16T02:19:41.928Z,100015.19
2024-03-16T02:22:10.630Z,100024.67
2024-03-16T02:24:37.385Z,100029.01
2024-03-16T02:27:04.117Z,100023.69
2024-03-16T02:29:33.889Z,100025.75
2024-03-16T02:32:00.629Z,100026.93
2024-03-16T02:34:27.289Z,100024.02
2024-03-16T02:36:54.001Z,100030.90
2024-03-16T02:39:23.372Z,100031.94
2024-03-16T02:41:49.764Z,100035.54
2024-03-16T02:44:16.351Z,100036.06
2024-03-16T02:46:42.808Z,100036.44
2024-03-16T02:49:09.260Z,100040.06
2024-03-16T02:51:35.934Z,100036.98
2024-03-16T02:54:02.957Z,100044.90
2024-03-16T02:56:29.540Z,100038.06
2024-03-16T02:58:56.007Z,100038.41
2024-03-16T03:01:23.047Z,100045.80
2024-03-16T03:03:49.693Z,100047.37
2024-03-16T03:06:16.319Z,100050.30
2024-03-16T03:08:44.762Z,100053.91
2024-03-16T03:11:12.579Z,100053.24
2024-03-16T03:13:39.140Z,100047.42
2024-03-16T03:16:05.832Z,100050.02
2024-03-16T03:18:32.299Z,100043.84
2024-03-16T03:20:59.166Z,100052.27
2024-03-16T03:23:25.995Z,100047.45
2024-03-16T03:25:53.387Z,100052.79
2024-03-16T03:28:20.095Z,100053.63
2024-03-16T03:30:49.913Z,100049.35
2024-03-16T03:33:16.481Z,100049.55
2024-03-16T03:35:43.092Z,100048.55
2024-03-16T03:38:09.580Z,100054.41
2024-03-16T03:40:36.160Z,100051.19
2024-03-16T03:43:02.696Z,100051.39
2024-03-16T03:45:39.452Z,100054.86
2024-03-16T03:48:26.712Z,100060.03
2024-03-16T03:50:57.983Z,100065.54
2024-03-16T03:53:26.688Z,100066.76
2024-03-16T03:55:54.191Z,100071.92
2024-03-16T03:58:21.755Z,100074.15
2024-03-16T04:00:49.450Z,100073.98
2024-03-16T04:03:16.893Z,100073.28
2024-03-16T04:05:47.016Z,100076.05
2024-03-16T04:08:13.431Z,100077.25
2024-03-16T04:10:40.192Z,100081.71
2024-03-16T04:13:06.667Z,100085.00
2024-03-16T04:15:33.219Z,100085.89
2024-03-16T04:17:59.937Z,100087.29
2024-03-16T04:20:27.038Z,100084.58
2024-03-16T04:22:53.949Z,100084.59
2024-03-16T04:25:22.473Z,100095.43
2024-03-16T04:27:49.812Z,100096.30
2024-03-16T04:30:16.420Z,100097.67
2024-03-16T04:32:43.065Z,100093.56
2024-03-16T04:35:09.733Z,100099.42
2024-03-16T04:37:36.257Z,100101.31
2024-03-16T04:40:07.037Z,100100.98
2024-03-16T04:42:33.815Z,100099.09
2024-03-16T04:45:00.940Z,100094.47
2024-03-16T04:47:27.609Z,100099.46
2024-03-16T04:49:54.489Z,100104.96
2024-03-16T04:52:20.925Z,100101.70
2024-03-16T04:54:47.560Z,100103.10
2024-03-16T04:57:14.227Z,100103.63
2024-03-16T04:59:40.975Z,100102.95
2024-03-16T05:02:08.186Z,100101.75
2024-03-16T05:04:35.062Z,100094.02
2024-03-16T05:07:01.628Z,100091.10
2024-03-16T05:09:28.359Z,100100.89
2024-03-16T05:11:55.784Z,100098.49
2024-03-16T05:14:22.487Z,100094.88
2024-03-16T05:16:48.880Z,100096.59
2024-03-16T05:19:15.416Z,100098.33
2024-03-16T05:21:43.606Z,100101.58
2024-03-16T05:24:10.374Z,100099.18
2024-03-16T05:26:37.832Z,100102.61
2024-03-16T05:29:04.330Z,100109.30
2024-03-16T05:31:32.807Z,100107.42
2024-03-16T05:33:59.355Z,100108.79
2024-03-16T05:36:25.826Z,100117.72
2024-03-16T05:38:53.257Z,100126.14
2024-03-16T05:41:19.761Z,100131.46
2024-03-16T05:43:47.066Z,100135.39
2024-03-16T05:46:13.853Z,100141.09
2024-03-16T05:48:40.379Z,100147.80
2024-03-16T05:51:07.388Z,100138.19
2024-03-16T05:53:33.879Z,100142.66
2024-03-16T05:56:00.401Z,100140.92
2024-03-16T05:58:27.060Z,100141.46
2024-03-16T06:00:53.832Z,100143.52
2024-03-16T06:03:20.611Z,100144.71
2024-03-16T06:05:48.590Z,100154.84
2024-03-16T06:08:15.290Z,100157.59
2024-03-16T06:10:42.626Z,100162.91
2024-03-16T06:13:11.594Z,100163.58
2024-03-16T06:15:40.303Z,100170.10
2024-03-16T06:18:07.058Z,100175.59
2024-03-16T06:20:33.576Z,100178.33
2024-03-16T06:22:59.972Z,100175.06
2024-03-16T06:25:26.969Z,100181.93
2024-03-16T06:27:55.341Z,100184.66
2024-03-16T06:30:31.661Z,100189.98
2024-03-16T06:33:09.636Z,100189.11
2024-03-16T06:35:42.656Z,100197.17
2024-03-16T06:38:09.694Z,100206.09
2024-03-16T06:40:36.338Z,100207.30
2024-03-16T06:43:03.613Z,100208.48
2024-03-16T06:45:30.132Z,100212.43
2024-03-16T06:47:56.805Z,100214.98
2024-03-16T06:50:23.704Z,100210.34
2024-03-16T06:52:50.383Z,100204.84
2024-03-16T06:55:19.612Z,100206.90
2024-03-16T06:57:46.711Z,100217.70
2024-03-16T07:00:15.272Z,100223.66
2024-03-16T07:02:41.736Z,100220.70
2024-03-16T07:05:10.881Z,100220.48
2024-03-16T07:07:37.410Z,100223.86
2024-03-16T07:10:10.964Z,100228.80
2024-03-16T07:12:37.595Z,100233.59
2024-03-16T07:15:07.135Z,100237.89
2024-03-16T07:17:33.704Z,100246.48
2024-03-16T07:20:00.362Z,100251.83
2024-03-16T07:22:28.222Z,100253.02
2024-03-16T07:24:55.648Z,100254.89
2024-03-16T07:27:22.170Z,100255.20
2024-03-16T07:29:48.562Z,100260.98
2024-03-16T07:32:14.956Z,100264.92
2024-03-16T07:34:41.380Z,100276.43
2024-03-16T07:37:08.022Z,100279.19
2024-03-16T07:39:34.492Z,100284.72
2024-03-16T07:42:00.973Z,100287.66
2024-03-16T07:44:27.640Z,100285.44
2024-03-16T07:46:54.923Z,100287.69
2024-03-16T07:49:21.617Z,100288.38
2024-03-16T07:51:48.243Z,100286.27
2024-03-16T07:54:16.283Z,100294.14
2024-03-16T07:56:42.746Z,100298.59
2024-03-16T07:59:10.775Z,100295.82
2024-03-16T08:01:37.757Z,100299.92
2024-03-16T08:04:04.893Z,100301.64
2024-03-16T08:06:31.469Z,100304.19
2024-03-16T08:08:58.147Z,100299.80
2024-03-16T08:11:24.862Z,100298.16
2024-03-16T08:13:51.490Z,100300.60
2024-03-16T08:16:18.012Z,100304.27
2024-03-16T08:18:46.897Z,100305.24
2024-03-16T08:21:15.557Z,100310.35
2024-03-16T08:23:42.228Z,100311.89
2024-03-16T08:26:10.177Z,100317.25
2024-03-16T08:28:36.780Z,100316.52
2024-03-16T08:31:03.726Z,100319.39
2024-03-16T08:33:30.714Z,100323.86
2024-03-16T08:35:57.290Z,100322.61
2024-03-16T08:38:25.473Z,100330.42
2024-03-16T08:40:51.845Z,100330.23
2024-03-16T08:43:18.438Z,100330.05
2024-03-16T08:45:45.219Z,100333.24
2024-03-16T08:48:11.673Z,100334.88
2024-03-16T08:50:38.991Z,100335.15
2024-03-16T08:53:05.475Z,100334.15
2024-03-16T08:55:32.086Z,100339.06
2024-03-16T08:57:58.749Z,100342.78
2024-03-16T09:00:26.207Z,100340.30
2024-03-16T09:02:53.659Z,100340.70
2024-03-16T09:05:21.989Z,100347.86
2024-03-16T09:07:48.883Z,100350.90
2024-03-16T09:10:16.090Z,100347.09
2024-03-16T09:12:42.607Z,100345.98
2024-03-16T09:15:09.788Z,100346.65
2024-03-16T09:17:37.498Z,100350.54
2024-03-16T09:20:11.897Z,100351.08
2024-03-16T09:22:38.923Z,100352.58
2024-03-16T09:25:06.792Z,100353.72
2024-03-16T09:27:36.624Z,100355.91
2024-03-16T09:30:09.756Z,100358.83
2024-03-16T09:32:37.635Z,100356.61
2024-03-16T09:35:08.524Z,100365.88
2024-03-16T09:37:35.360Z,100358.65
2024-03-16T09:40:02.028Z,100361.50
2024-03-16T09:42:29.627Z,100360.96
2024-03-16T09:44:58.396Z,100359.86
2024-03-16T09:47:26.693Z,100366.91
2024-03-16T09:49:53.227Z,100364.86
2024-03-16T09:52:22.467Z,100373.02
2024-03-16T09:54:48.964Z,100377.05
2024-03-16T09:57:16.858Z,100379.73
2024-03-16T09:59:49.037Z,100394.73
2024-03-16T10:02:24.881Z,100396.77
2024-03-16T10:04:51.585Z,100398.84
2024-03-16T10:07:18.173Z,100402.62
2024-03-16T10:09:54.244Z,100399.57
2024-03-16T10:12:22.493Z,100403.52
2024-03-16T10:15:10.373Z,100403.36
2024-03-16T10:17:40.225Z,100405.52
2024-03-16T10:20:16.679Z,100410.35
2024-03-16T10:22:47.041Z,100410.98
2024-03-16T10:25:15.008Z,100422.21
2024-03-16T10:27:41.648Z,100441.38
2024-03-16T10:30:12.005Z,100439.59
2024-03-16T10:32:42.311Z,100447.98
2024-03-16T10:35:15.367Z,100459.38
2024-03-16T10:37:43.497Z,100454.34
2024-03-16T10:40:17.676Z,100461.77
2024-03-16T10:42:45.500Z,100466.79
2024-03-16T10:45:17.550Z,100472.60
2024-03-16T10:47:51.625Z,100474.33
2024-03-16T10:50:21.093Z,100481.39
2024-03-16T10:52:49.289Z,100479.14
2024-03-16T10:55:23.086Z,100477.58
2024-03-16T10:57:50.521Z,100480.58
2024-03-16T11:00:36.518Z,100481.13
2024-03-16T11:03:13.308Z,100486.84
2024-03-16T11:05:49.347Z,100490.23
2024-03-16T11:08:16.012Z,100497.27
2024-03-16T11:10:44.093Z,100497.89
2024-03-16T11:13:18.614Z,100505.29
2024-03-16T11:15:47.968Z,100500.46
2024-03-16T11:18:17.377Z,100502.13
2024-03-16T11:20:56.994Z,100508.46
2024-03-16T11:23:33.332Z,100517.01
2024-03-16T11:26:28.588Z,100525.75
2024-03-16T11:29:01.034Z,100529.80
2024-03-16T11:31:39.689Z,100530.36
2024-03-16T11:34:12.290Z,100531.67
2024-03-16T11:36:48.358Z,100534.42
2024-03-16T11:39:17.638Z,100543.51
2024-03-16T11:41:46.103Z,100551.80
2024-03-16T11:44:17.376Z,100551.90
2024-03-16T11:46:46.854Z,100563.34
2024-03-16T11:49:16.016Z,100569.35
2024-03-16T11:51:43.535Z,100570.56
2024-03-16T11:54:11.416Z,100575.97
2024-03-16T11:56:38.348Z,100584.42
2024-03-16T11:59:05.364Z,100583.10
2024-03-16T12:01:35.820Z,100590.45
2024-03-16T12:04:02.828Z,100603.30
2024-03-16T12:06:29.958Z,100593.73
2024-03-16T12:08:56.654Z,100594.23
2024-03-16T12:11:24.495Z,100596.20
2024-03-16T12:13:53.817Z,100599.23
2024-03-16T12:16:21.652Z,100600.26
2024-03-16T12:18:48.347Z,100595.98
2024-03-16T12:21:14.846Z,100604.91
2024-03-16T12:23:41.733Z,100606.61
2024-03-16T12:26:10.753Z,100613.04
2024-03-16T12:28:37.366Z,100625.11
2024-03-16T12:31:04.031Z,100626.77
2024-03-16T12:33:33.051Z,100628.54
2024-03-16T12:35:59.487Z,100631.98
2024-03-16T12:38:26.103Z,100634.42
2024-03-16T12:40:52.654Z,100626.01
2024-03-16T12:43:20.233Z,100614.69
2024-03-16T12:45:46.706Z,100620.38
2024-03-16T12:48:13.447Z,100610.11
2024-03-16T12:50:39.859Z,100616.88
2024-03-16T12:53:08.930Z,100612.65
2024-03-16T12:55:35.605Z,100619.45
2024-03-16T12:58:02.538Z,100610.54
2024-03-16T13:00:28.921Z,100616.00
2024-03-16T13:02:55.340Z,100614.59
2024-03-16T13:05:22.090Z,100617.81
2024-03-16T13:07:49.170Z,100615.23
2024-03-16T13:10:15.714Z,100620.91
2024-03-16T13:12:42.140Z,100624.96
2024-03-16T13:15:09.863Z,100623.65
2024-03-16T13:17:36.539Z,100619.31
2024-03-16T13:20:04.252Z,100632.60
2024-03-16T13:22:30.620Z,100630.02
2024-03-16T13:24:56.949Z,100630.98
2024-03-16T13:27:23.592Z,100635.77
2024-03-16T13:29:49.920Z,100637.01
2024-03-16T13:32:16.351Z,100640.55
2024-03-16T13:34:42.850Z,100643.09
2024-03-16T13:37:09.278Z,100650.10
2024-03-16T13:39:38.552Z,100650.29
2024-03-16T13:42:07.075Z,100650.26
2024-03-16T13:44:35.110Z,100648.86
2024-03-16T13:47:03.416Z,100651.40
2024-03-16T13:49:32.458Z,100646.58
2024-03-16T13:52:00.470Z,100650.17
2024-03-16T13:54:26.956Z,100656.38
2024-03-16T13:56:53.583Z,100660.63
2024-03-16T13:59:20.364Z,100667.16
2024-03-16T14:01:47.225Z,100662.60
2024-03-16T14:04:13.742Z,100671.92
2024-03-16T14:06:40.350Z,100677.52
2024-03-16T14:09:07.795Z,100679.13
2024-03-16T14:11:35.526Z,100681.98
2024-03-16T14:14:02.184Z,100685.96
2024-03-16T14:16:28.821Z,100687.85
2024-03-16T14:18:55.425Z,100690.23
2024-03-16T14:21:21.956Z,100696.08
2024-03-16T14:23:49.237Z,100692.08
2024-03-16T14:26:15.649Z,100690.86
2024-03-16T14:28:42.425Z,100686.84
2024-03-16T14:31:10.152Z,100686.09
2024-03-16T14:33:39.358Z,100681.45
2024-03-16T14:36:07.016Z,100675.19
2024-03-16T14:38:34.860Z,100683.55
2024-03-16T14:41:01.804Z,100685.75
2024-03-16T14:43:29.116Z,100696.02
2024-03-16T14:45:55.606Z,100699.92
2024-03-16T14:48:22.070Z,100703.08
2024-03-16T14:50:51.882Z,100706.06
2024-03-16T14:53:18.490Z,100710.88
2024-03-16T14:55:45.337Z,100714.90
2024-03-16T14:58:12.250Z,100723.77
2024-03-16T15:00:39.254Z,100729.12
2024-03-16T15:03:07.291Z,100736.52
2024-03-16T15:05:35.811Z,100742.29
2024-03-16T15:08:02.730Z,100740.00
2024-03-16T15:10:29.230Z,100744.80
2024-03-16T15:12:55.741Z,100747.48
2024-03-16T15:15:23.465Z,100749.41
2024-03-16T15:17:50.163Z,100750.45
2024-03-16T15:20:16.680Z,100752.05
2024-03-16T15:22:44.871Z,100761.63
2024-03-16T15:25:19.808Z,100769.29
2024-03-16T15:27:49.163Z,100766.31
2024-03-16T15:30:15.697Z,100765.83
2024-03-16T15:32:42.118Z,100771.65
2024-03-16T15:35:10.983Z,100775.58
2024-03-16T15:37:38.475Z,100779.40
2024-03-16T15:40:05.641Z,100785.02
2024-03-16T15:42:33.087Z,100790.60
2024-03-16T15:45:00.252Z,100793.14
2024-03-16T15:47:30.708Z,100793.81
2024-03-16T15:49:57.202Z,100793.52
2024-03-16T15:52:23.722Z,100797.52
2024-03-16T15:54:50.102Z,100799.89
2024-03-16T15:57:17.187Z,100807.54
2024-03-16T15:59:43.519Z,100821.99
2024-03-16T16:02:10.661Z,100824.55
2024-03-16T16:04:37.119Z,100829.52
2024-03-16T16:07:04.502Z,100831.68
2024-03-16T16:09:34.445Z,100836.95
2024-03-16T16:12:00.884Z,100839.97
2024-03-16T16:14:27.360Z,100838.64
2024-03-16T16:16:53.804Z,100842.82
2024-03-16T16:19:20.176Z,100845.98
2024-03-16T16:21:46.633Z,100849.30
2024-03-16T16:24:13.586Z,100857.60
2024-03-16T16:26:42.154Z,100860.55
2024-03-16T16:29:11.430Z,100865.41
2024-03-16T16:31:37.901Z,100871.64
2024-03-16T16:34:05.846Z,100879.25
2024-03-16T16:36:35.183Z,100880.82
2024-03-16T16:39:01.596Z,100885.82
2024-03-16T16:41:27.989Z,100884.98
2024-03-16T16:43:54.660Z,100890.66
2024-03-16T16:46:21.206Z,100890.48
2024-03-16T16:48:48.038Z,100893.77
2024-03-16T16:51:14.505Z,100891.86
2024-03-16T16:53:40.960Z,100887.91
2024-03-16T16:56:07.331Z,100896.35
2024-03-16T16:58:33.699Z,100902.71
2024-03-16T17:01:02.888Z,100904.43
2024-03-16T17:03:30.661Z,100905.98
2024-03-16T17:06:00.234Z,100900.11
2024-03-16T17:08:26.776Z,100910.09
2024-03-16T17:10:54.332Z,100919.38
2024-03-16T17:13:20.894Z,100922.13
2024-03-16T17:15:47.529Z,100921.77
2024-03-16T17:18:14.061Z,100921.74
2024-03-16T17:20:41.853Z,100933.23
2024-03-16T17:23:08.273Z,100938.02
2024-03-16T17:25:35.070Z,100939.54
2024-03-16T17:28:01.736Z,100935.73
2024-03-16T17:30:28.114Z,100938.98
2024-03-16T17:32:54.521Z,100940.02
2024-03-16T17:35:21.017Z,100941.04
2024-03-16T17:37:47.746Z,100946.17
2024-03-16T17:40:14.843Z,100952.70
2024-03-16T17:42:41.199Z,100956.49
2024-03-16T17:45:08.202Z,100965.59
2024-03-16T17:47:34.878Z,100973.14
2024-03-16T17:50:01.505Z,100983.30
2024-03-16T17:52:27.953Z,100982.94
2024-03-16T17:54:55.102Z,100985.67
2024-03-16T17:57:21.588Z,100988.05
2024-03-16T17:59:48.279Z,100991.81
2024-03-16T18:02:14.977Z,100992.46
2024-03-16T18:04:41.682Z,101000.51
2024-03-16T18:07:10.584Z,100991.52
2024-03-16T18:09:37.131Z,100995.43
2024-03-16T18:12:08.223Z,101003.81
2024-03-16T18:14:35.709Z,101006.17
2024-03-16T18:17:02.297Z,101007.70
2024-03-16T18:19:31.335Z,101008.20
2024-03-16T18:21:58.003Z,101001.16
2024-03-16T18:24:25.021Z,100998.73
2024-03-16T18:26:51.362Z,100998.58
2024-03-16T18:29:18.257Z,101003.71
2024-03-16T18:31:45.262Z,101006.10
2024-03-16T18:34:11.824Z,101007.64
2024-03-16T18:36:38.315Z,101010.73
2024-03-16T18:39:10.562Z,101009.14
2024-03-16T18:41:40.004Z,101011.52
2024-03-16T18:44:08.641Z,101014.58
2024-03-16T18:46:36.703Z,101016.10
2024-03-16T18:49:07.265Z,101014.52
2024-03-16T18:51:35.219Z,101016.04
2024-03-16T18:54:02.341Z,101015.50
2024-03-16T18:56:29.081Z,101017.36
2024-03-16T18:58:56.074Z,101020.06
2024-03-16T19:01:22.455Z,101024.50
2024-03-16T19:03:49.774Z,101030.48
2024-03-16T19:06:16.404Z,101038.52
2024-03-16T19:08:43.114Z,101047.61
2024-03-16T19:11:14.117Z,101047.58
2024-03-16T19:13:40.761Z,101049.26
2024-03-16T19:16:07.345Z,101056.27
2024-03-16T19:18:34.698Z,101063.11
2024-03-16T19:21:01.081Z,101064.98
2024-03-16T19:23:27.458Z,101069.94
2024-03-16T19:25:54.406Z,101074.05
2024-03-16T19:28:21.804Z,101081.79
2024-03-16T19:30:48.242Z,101078.69
2024-03-16T19:33:14.689Z,101085.03
2024-03-16T19:35:41.114Z,101085.55
2024-03-16T19:38:09.529Z,101086.07
2024-03-16T19:40:36.442Z,101094.69
2024-03-16T19:43:06.235Z,101099.67
2024-03-16T19:45:32.944Z,101101.23
2024-03-16T19:47:59.311Z,101106.25
2024-03-16T19:50:26.439Z,101103.52
2024-03-16T19:52:53.524Z,101098.90
2024-03-16T19:55:21.532Z,101099.59
2024-03-16T19:57:47.977Z,101099.77
2024-03-16T20:00:20.336Z,101103.39
2024-03-16T20:02:48.008Z,101105.48
2024-03-16T20:05:15.034Z,101107.20
2024-03-16T20:07:42.149Z,101106.68
2024-03-16T20:10:09.720Z,101101.88
2024-03-16T20:12:36.124Z,101106.52
2024-03-16T20:15:05.260Z,101108.03
2024-03-16T20:17:33.164Z,101112.13
2024-03-16T20:20:03.092Z,101113.28
2024-03-16T20:22:29.733Z,101115.83
2024-03-16T20:24:56.174Z,101116.14
2024-03-16T20:27:22.594Z,101119.89
2024-03-16T20:29:49.242Z,101122.40
2024-03-16T20:32:15.717Z,101122.52
2024-03-16T20:34:42.825Z,101127.79
2024-03-16T20:37:09.187Z,101132.93
2024-03-16T20:39:36.082Z,101134.98
2024-03-16T20:42:02.507Z,101139.25
2024-03-16T20:44:28.909Z,101142.36
2024-03-16T20:46:55.347Z,101145.12
2024-03-16T20:49:21.885Z,101149.94
2024-03-16T20:51:48.619Z,101147.53
2024-03-16T20:54:15.118Z,101146.33
2024-03-16T20:56:43.355Z,101145.46
2024-03-16T20:59:09.892Z,101143.55
2024-03-16T21:01:36.400Z,101144.73
2024-03-16T21:04:04.872Z,101148.52
2024-03-16T21:06:31.850Z,101149.20
2024-03-16T21:08:58.304Z,101151.08
2024-03-16T21:11:29.015Z,101151.79
2024-03-16T21:13:56.436Z,101150.41
2024-03-16T21:16:22.940Z,101151.30
2024-03-16T21:18:49.760Z,101151.65
2024-03-16T21:21:16.183Z,101148.73
2024-03-16T21:23:43.409Z,101149.75
2024-03-16T21:26:11.314Z,101149.55
2024-03-16T21:28:38.592Z,101147.14
2024-03-16T21:31:06.610Z,101145.90
2024-03-16T21:33:32.968Z,101144.14
2024-03-16T21:35:59.632Z,101145.13
2024-03-16T21:38:26.089Z,101146.10
2024-03-16T21:40:52.589Z,101145.20
2024-03-16T21:43:19.205Z,101144.80
2024-03-16T21:45:45.625Z,101144.56
2024-03-16T21:48:13.429Z,101147.61
2024-03-16T21:50:42.251Z,101146.02
2024-03-16T21:53:09.525Z,101145.95
2024-03-16T21:55:35.903Z,101142.63
2024-03-16T21:58:02.329Z,101141.75
2024-03-16T22:00:28.827Z,101139.66
2024-03-16T22:02:55.332Z,101141.85
2024-03-16T22:05:21.788Z,101147.13
2024-03-16T22:07:48.486Z,101146.42
2024-03-16T22:10:14.840Z,101144.50
2024-03-16T22:12:41.673Z,101141.56
2024-03-16T22:15:09.121Z,101143.95
2024-03-16T22:17:36.438Z,101144.95
2024-03-16T22:20:03.719Z,101148.73
2024-03-16T22:22:30.789Z,101149.92
2024-03-16T22:24:58.452Z,101151.47
2024-03-16T22:27:24.904Z,101149.27
2024-03-16T22:29:51.545Z,101148.90
2024-03-16T22:32:19.183Z,101153.56
2024-03-16T22:34:46.248Z,101155.63
2024-03-16T22:37:13.338Z,101156.67
2024-03-16T22:39:39.848Z,101157.86
2024-03-16T22:42:07.100Z,101160.81
2024-03-16T22:44:34.243Z,101159.63
2024-03-16T22:47:01.531Z,101161.88
2024-03-16T22:49:28.002Z,101161.03
2024-03-16T22:51:54.573Z,101159.98
2024-03-16T22:54:21.330Z,101158.27
2024-03-16T22:56:48.220Z,101160.55
2024-03-16T22:59:14.710Z,101162.77
2024-03-16T23:01:41.790Z,101165.86
2024-03-16T23:04:08.697Z,101170.30
2024-03-16T23:06:35.141Z,101170.10
2024-03-16T23:09:01.575Z,101166.50
2024-03-16T23:11:28.382Z,101166.33
2024-03-16T23:13:56.142Z,101168.04
2024-03-16T23:16:22.763Z,101162.55
2024-03-16T23:18:50.407Z,101163.08
2024-03-16T23:21:16.799Z,101159.98
2024-03-16T23:23:46.825Z,101158.44
2024-03-16T23:26:16.354Z,101155.19
2024-03-16T23:28:43.536Z,101149.17
2024-03-16T23:31:10.227Z,101149.50
2024-03-16T23:33:37.603Z,101151.88
2024-03-16T23:36:04.556Z,101151.02
2024-03-16T23:38:32.487Z,101155.30
2024-03-16T23:41:03.681Z,101157.88
2024-03-16T23:43:31.536Z,101160.46
2024-03-16T23:45:58.297Z,101159.98
2024-03-16T23:48:24.795Z,101163.20
2024-03-16T23:50:51.393Z,101157.35
2024-03-16T23:53:18.910Z,101158.51
2024-03-16T23:55:45.385Z,101159.83
2024-03-16T23:58:13.198Z,101163.52
